Time;durP1;ratioP1;P1;durP2;ratioP2;P2;SDS_P1;SDS_P2;PMS_P1;PMS_P2;Temp;Humidity;BMP_temperature;BMP_pressure;BME280_temperature;BME280_humidity;BME280_pressure;Samples;Min_cycle;Max_cycle;Signal;HPM_P1;HPM_P2
2022/07/08 00:01:06;;;;;;;2.78;1.00;;;;;;;;;;5048365;28;20475;-80
2022/07/08 00:03:31;;;;;;;1.88;1.10;;;;;;;;;;5043107;28;20029;-80
2022/07/08 00:05:57;;;;;;;2.50;1.10;;;;;;;;;;5018881;28;20025;-81
2022/07/08 00:08:22;;;;;;;2.33;1.20;;;;;;;;;;5031738;28;20053;-80
2022/07/08 00:10:48;;;;;;;2.08;1.00;;;;;;;;;;5031890;28;20136;-81
2022/07/08 00:13:13;;;;;;;1.85;0.98;;;;;;;;;;5032750;28;20040;-80
2022/07/08 00:15:39;;;;;;;2.25;0.90;;;;;;;;;;5033163;28;20065;-81
2022/07/08 00:18:04;;;;;;;2.72;0.85;;;;;;;;;;5031289;28;20401;-80
2022/07/08 00:20:30;;;;;;;2.92;0.90;;;;;;;;;;5015285;28;20022;-79
2022/07/08 00:22:57;;;;;;;2.45;0.95;;;;;;;;;;5031314;28;20124;-80
2022/07/08 00:25:22;;;;;;;3.15;1.08;;;;;;;;;;5011680;28;20022;-79
2022/07/08 00:27:47;;;;;;;2.70;0.80;;;;;;;;;;5033023;28;20082;-80
2022/07/08 00:30:13;;;;;;;3.92;1.00;;;;;;;;;;5050020;28;20021;-80
2022/07/08 00:32:38;;;;;;;1.58;0.90;;;;;;;;;;5050718;28;20086;-80
2022/07/08 00:35:04;;;;;;;3.10;1.00;;;;;;;;;;5036935;28;20408;-80
2022/07/08 00:37:30;;;;;;;3.05;1.27;;;;;;;;;;5038095;28;20029;-80
2022/07/08 00:39:55;;;;;;;2.28;0.90;;;;;;;;;;5038478;28;20112;-80
2022/07/08 00:42:21;;;;;;;2.03;1.02;;;;;;;;;;5051040;28;20406;-80
2022/07/08 00:44:46;;;;;;;1.77;1.10;;;;;;;;;;5032440;28;20033;-80
2022/07/08 00:47:12;;;;;;;3.58;0.88;;;;;;;;;;5030596;28;20567;-81
2022/07/08 00:49:37;;;;;;;2.25;0.98;;;;;;;;;;5032378;28;20049;-80
2022/07/08 00:52:03;;;;;;;2.35;0.98;;;;;;;;;;5031245;28;20040;-80
2022/07/08 00:54:29;;;;;;;2.97;1.58;;;;;;;;;;5030753;28;20032;-79
2022/07/08 00:56:55;;;;;;;1.70;1.00;;;;;;;;;;5030742;28;20030;-80
2022/07/08 00:59:21;;;;;;;3.08;1.00;;;;;;;;;;5031595;28;20097;-79
2022/07/08 01:01:46;;;;;;;2.25;0.95;;;;;;;;;;5031007;28;20492;-80
2022/07/08 01:04:11;;;;;;;2.55;1.10;;;;;;;;;;5032364;28;20121;-79
2022/07/08 01:06:37;;;;;;;3.92;1.30;;;;;;;;;;5030985;28;20041;-80
2022/07/08 01:09:03;;;;;;;2.67;1.10;;;;;;;;;;5030789;28;20057;-79
2022/07/08 01:11:28;;;;;;;5.47;1.30;;;;;;;;;;5031168;28;20467;-79
2022/07/08 01:13:54;;;;;;;9.40;1.67;;;;;;;;;;5032362;28;20035;-78
2022/07/08 01:16:19;;;;;;;4.00;1.08;;;;;;;;;;5011165;28;20087;-81
2022/07/08 01:18:45;;;;;;;2.72;1.67;;;;;;;;;;5012950;28;20037;-79
2022/07/08 01:21:10;;;;;;;7.47;1.90;;;;;;;;;;5031923;28;20464;-80
2022/07/08 01:23:36;;;;;;;2.92;1.65;;;;;;;;;;5031597;28;20033;-80
2022/07/08 01:26:04;;;;;;;3.78;1.20;;;;;;;;;;5031566;28;20048;-79
2022/07/08 01:28:30;;;;;;;5.10;1.30;;;;;;;;;;5031779;28;20025;-80
2022/07/08 01:30:55;;;;;;;1.73;1.20;;;;;;;;;;5030437;28;20399;-79
2022/07/08 01:33:21;;;;;;;2.08;1.40;;;;;;;;;;5031619;28;20022;-79
2022/07/08 01:35:46;;;;;;;3.30;1.05;;;;;;;;;;5030329;28;20037;-79
2022/07/08 01:38:11;;;;;;;2.50;1.20;;;;;;;;;;5032050;28;20029;-80
2022/07/08 01:40:37;;;;;;;5.28;1.30;;;;;;;;;;5031544;28;20029;-80
2022/07/08 01:43:02;;;;;;;3.95;1.13;;;;;;;;;;5031757;28;20025;-80
2022/07/08 01:45:28;;;;;;;9.23;6.05;;;;;;;;;;5030335;28;20075;-80
2022/07/08 01:47:53;;;;;;;2.10;1.30;;;;;;;;;;5032606;28;20514;-80
2022/07/08 01:50:19;;;;;;;2.88;1.23;;;;;;;;;;5031123;28;20025;-80
2022/07/08 01:52:44;;;;;;;3.28;1.27;;;;;;;;;;5033012;28;20559;-80
2022/07/08 01:55:10;;;;;;;3.58;1.20;;;;;;;;;;5031205;28;20087;-80
2022/07/08 01:57:35;;;;;;;3.70;1.27;;;;;;;;;;5033228;28;20032;-80
2022/07/08 02:00:01;;;;;;;3.90;1.35;;;;;;;;;;5011653;28;20038;-79
2022/07/08 02:02:36;;;;;;;4.00;1.20;;;;;;;;;;5031502;28;20026;-80
2022/07/08 02:05:01;;;;;;;2.58;1.25;;;;;;;;;;5030956;28;20369;-79
2022/07/08 02:07:27;;;;;;;4.65;1.40;;;;;;;;;;5031508;28;20032;-79
2022/07/08 02:09:52;;;;;;;1.20;1.00;;;;;;;;;;5035406;28;20049;-78
2022/07/08 02:12:20;;;;;;;1.92;1.10;;;;;;;;;;5036067;28;20171;-78
2022/07/08 02:14:46;;;;;;;2.95;1.20;;;;;;;;;;5035817;28;20135;-79
2022/07/08 02:17:12;;;;;;;3.47;1.05;;;;;;;;;;5035609;28;20065;-79
2022/07/08 02:19:37;;;;;;;3.13;1.17;;;;;;;;;;5034114;28;20033;-79
2022/07/08 02:22:03;;;;;;;2.28;1.10;;;;;;;;;;5036377;28;20021;-79
2022/07/08 02:24:28;;;;;;;4.65;1.23;;;;;;;;;;5035474;28;20045;-79
2022/07/08 02:26:54;;;;;;;3.80;1.10;;;;;;;;;;5033621;28;20033;-80
2022/07/08 02:29:19;;;;;;;1.67;0.90;;;;;;;;;;5044970;28;20041;-80
2022/07/08 02:31:45;;;;;;;2.05;1.17;;;;;;;;;;5052861;28;20571;-79
2022/07/08 02:34:10;;;;;;;2.60;1.38;;;;;;;;;;5053250;28;20044;-79
2022/07/08 02:36:36;;;;;;;2.00;1.10;;;;;;;;;;5053278;28;20052;-79
2022/07/08 02:39:01;;;;;;;3.38;1.10;;;;;;;;;;5051918;28;20028;-80
2022/07/08 02:41:27;;;;;;;2.55;1.00;;;;;;;;;;5053076;28;20017;-79
2022/07/08 02:43:52;;;;;;;2.15;1.15;;;;;;;;;;5053438;28;20086;-80
2022/07/08 02:46:18;;;;;;;2.53;1.20;;;;;;;;;;5035172;28;20094;-79
2022/07/08 02:48:43;;;;;;;6.30;2.10;;;;;;;;;;5053447;28;20021;-79
2022/07/08 02:51:08;;;;;;;2.58;1.60;;;;;;;;;;5052625;28;20025;-79
2022/07/08 02:53:34;;;;;;;2.85;1.20;;;;;;;;;;5053551;28;20044;-79
2022/07/08 02:55:59;;;;;;;2.20;1.10;;;;;;;;;;5050982;28;20141;-79
2022/07/08 02:58:25;;;;;;;3.28;1.27;;;;;;;;;;5051980;28;20120;-79
2022/07/08 03:00:51;;;;;;;2.95;1.30;;;;;;;;;;5046615;28;20024;-79
2022/07/08 03:03:16;;;;;;;3.88;1.48;;;;;;;;;;5043380;28;20032;-79
2022/07/08 03:05:42;;;;;;;3.17;1.38;;;;;;;;;;5050563;28;20465;-80
2022/07/08 03:08:07;;;;;;;3.00;1.27;;;;;;;;;;5044065;28;20132;-79
2022/07/08 03:10:32;;;;;;;6.07;1.30;;;;;;;;;;5050233;28;20522;-79
2022/07/08 03:12:58;;;;;;;3.05;1.10;;;;;;;;;;5050504;28;20028;-82
2022/07/08 03:15:24;;;;;;;2.10;1.05;;;;;;;;;;5049401;28;20025;-80
2022/07/08 03:17:50;;;;;;;1.65;0.90;;;;;;;;;;5051811;28;20399;-81
2022/07/08 03:20:15;;;;;;;2.95;1.20;;;;;;;;;;5049408;28;20026;-80
2022/07/08 03:22:41;;;;;;;3.03;1.00;;;;;;;;;;5048477;28;20045;-80
2022/07/08 03:25:07;;;;;;;4.53;1.40;;;;;;;;;;5035278;28;20063;-80
2022/07/08 03:27:32;;;;;;;3.20;1.30;;;;;;;;;;5044097;28;20029;-81
2022/07/08 03:29:58;;;;;;;2.10;1.10;;;;;;;;;;5049106;28;20488;-79
2022/07/08 03:32:23;;;;;;;4.00;1.27;;;;;;;;;;5054594;28;20098;-80
2022/07/08 03:34:49;;;;;;;6.47;1.10;;;;;;;;;;5052181;28;20021;-80
2022/07/08 03:37:14;;;;;;;4.20;1.17;;;;;;;;;;5053096;28;20048;-79
2022/07/08 03:39:40;;;;;;;3.78;1.10;;;;;;;;;;5035517;28;20028;-80
2022/07/08 03:42:05;;;;;;;2.80;1.13;;;;;;;;;;5033423;28;20049;-80
2022/07/08 03:44:31;;;;;;;4.60;1.13;;;;;;;;;;5032356;28;20471;-80
2022/07/08 03:46:56;;;;;;;2.28;1.00;;;;;;;;;;5033130;28;20037;-81
2022/07/08 03:49:22;;;;;;;3.47;1.20;;;;;;;;;;5033186;28;20029;-82
2022/07/08 03:51:48;;;;;;;3.10;1.90;;;;;;;;;;5032758;28;20104;-80
2022/07/08 03:54:13;;;;;;;2.67;1.20;;;;;;;;;;5031993;28;20025;-80
2022/07/08 03:56:39;;;;;;;4.35;1.40;;;;;;;;;;5031644;28;20475;-80
2022/07/08 03:59:04;;;;;;;3.75;1.40;;;;;;;;;;5033624;28;20043;-81
2022/07/08 04:01:29;;;;;;;4.20;1.70;;;;;;;;;;5032901;28;20034;-80
2022/07/08 04:03:55;;;;;;;5.45;1.27;;;;;;;;;;5032356;28;20029;-81
2022/07/08 04:06:21;;;;;;;4.32;1.40;;;;;;;;;;5033176;28;20025;-80
2022/07/08 04:08:46;;;;;;;4.90;1.75;;;;;;;;;;5034509;28;20048;-80
2022/07/08 04:11:12;;;;;;;5.13;1.20;;;;;;;;;;5031919;28;20037;-81
2022/07/08 04:13:40;;;;;;;3.72;1.40;;;;;;;;;;5033865;28;20053;-80
2022/07/08 04:16:10;;;;;;;3.00;1.75;;;;;;;;;;5032841;28;20099;-81
2022/07/08 04:18:36;;;;;;;3.15;1.40;;;;;;;;;;5033012;28;20029;-81
2022/07/08 04:21:02;;;;;;;4.95;1.70;;;;;;;;;;5031284;28;20025;-81
2022/07/08 04:23:27;;;;;;;3.53;1.10;;;;;;;;;;5032316;28;20440;-81
2022/07/08 04:25:53;;;;;;;6.60;1.52;;;;;;;;;;5032154;28;20395;-80
2022/07/08 04:28:18;;;;;;;2.50;1.13;;;;;;;;;;5032281;28;20083;-81
2022/07/08 04:30:44;;;;;;;4.63;1.58;;;;;;;;;;5030226;28;20497;-81
2022/07/08 04:33:09;;;;;;;4.25;2.00;;;;;;;;;;5031245;28;20172;-81
2022/07/08 04:35:36;;;;;;;2.10;1.40;;;;;;;;;;5030805;28;20043;-82
2022/07/08 04:38:02;;;;;;;3.17;1.40;;;;;;;;;;5032885;28;20029;-81
2022/07/08 04:40:28;;;;;;;5.25;3.97;;;;;;;;;;5031164;28;20568;-81
2022/07/08 04:42:53;;;;;;;6.82;1.60;;;;;;;;;;5030946;28;20488;-82
2022/07/08 04:45:19;;;;;;;3.15;1.42;;;;;;;;;;5030288;28;20071;-82
2022/07/08 04:47:46;;;;;;;6.32;2.00;;;;;;;;;;5032016;28;20116;-83
2022/07/08 04:50:11;;;;;;;3.95;1.63;;;;;;;;;;5031776;28;20034;-81
2022/07/08 04:52:37;;;;;;;5.82;1.67;;;;;;;;;;5030788;28;20025;-82
2022/07/08 04:55:02;;;;;;;3.85;1.50;;;;;;;;;;5031425;28;20021;-80
2022/07/08 04:57:32;;;;;;;5.50;1.60;;;;;;;;;;5035446;28;20515;-81
2022/07/08 05:00:00;;;;;;;3.00;1.30;;;;;;;;;;5034230;28;20119;-80
2022/07/08 05:02:26;;;;;;;2.25;1.20;;;;;;;;;;5034248;28;20029;-80
2022/07/08 05:04:52;;;;;;;2.40;1.30;;;;;;;;;;5031443;28;20043;-81
2022/07/08 05:07:17;;;;;;;4.22;1.30;;;;;;;;;;5031177;28;20021;-80
2022/07/08 05:09:43;;;;;;;5.32;1.35;;;;;;;;;;5029617;28;20056;-82
2022/07/08 05:12:08;;;;;;;3.05;1.23;;;;;;;;;;5029895;28;20045;-81
2022/07/08 05:14:34;;;;;;;6.85;4.75;;;;;;;;;;5041258;28;20037;-79
2022/07/08 05:16:59;;;;;;;3.70;1.40;;;;;;;;;;5050922;28;20472;-80
2022/07/08 05:19:25;;;;;;;2.40;1.25;;;;;;;;;;5040985;28;20045;-80
2022/07/08 05:21:51;;;;;;;4.18;1.60;;;;;;;;;;5034398;28;20032;-81
2022/07/08 05:24:16;;;;;;;2.95;1.50;;;;;;;;;;5050547;28;20033;-83
2022/07/08 05:26:42;;;;;;;4.13;1.50;;;;;;;;;;5017122;28;20017;-81
2022/07/08 05:29:07;;;;;;;3.72;1.20;;;;;;;;;;5041447;28;20039;-80
2022/07/08 05:31:32;;;;;;;2.92;1.30;;;;;;;;;;5035848;28;20021;-82
2022/07/08 05:33:58;;;;;;;3.25;1.80;;;;;;;;;;5051179;28;20025;-82
2022/07/08 05:36:23;;;;;;;4.50;1.20;;;;;;;;;;5049828;28;20021;-82
2022/07/08 05:38:49;;;;;;;2.30;1.33;;;;;;;;;;5050115;28;20111;-84
2022/07/08 05:41:14;;;;;;;5.95;1.30;;;;;;;;;;5049193;28;20111;-80
2022/07/08 05:43:40;;;;;;;2.05;1.10;;;;;;;;;;5052772;28;20492;-80
2022/07/08 05:46:05;;;;;;;2.67;1.40;;;;;;;;;;5036845;28;20052;-81
2022/07/08 05:48:31;;;;;;;4.80;1.17;;;;;;;;;;5053639;28;20036;-81
2022/07/08 05:50:56;;;;;;;3.90;1.15;;;;;;;;;;5053092;28;20430;-81
2022/07/08 05:53:22;;;;;;;3.45;1.20;;;;;;;;;;5055013;28;20431;-80
2022/07/08 05:55:47;;;;;;;2.95;0.90;;;;;;;;;;5054458;28;20574;-82
2022/07/08 05:58:13;;;;;;;3.38;1.23;;;;;;;;;;5044067;28;20041;-81
2022/07/08 06:00:38;;;;;;;3.67;1.80;;;;;;;;;;5047996;28;20033;-81
2022/07/08 06:03:05;;;;;;;4.07;1.20;;;;;;;;;;5045100;28;20033;-82
2022/07/08 06:05:31;;;;;;;2.53;1.20;;;;;;;;;;5021069;28;20445;-81
2022/07/08 06:07:56;;;;;;;2.67;1.10;;;;;;;;;;5014064;28;20096;-83
2022/07/08 06:10:22;;;;;;;3.55;1.50;;;;;;;;;;5014359;28;20071;-81
2022/07/08 06:12:48;;;;;;;2.45;1.10;;;;;;;;;;5035376;28;20040;-81
2022/07/08 06:15:14;;;;;;;2.60;1.10;;;;;;;;;;5035180;28;20082;-80
2022/07/08 06:17:40;;;;;;;3.38;1.33;;;;;;;;;;5034135;28;20108;-81
2022/07/08 06:20:06;;;;;;;1.73;0.93;;;;;;;;;;5017461;28;20053;-80
2022/07/08 06:22:32;;;;;;;3.42;1.40;;;;;;;;;;5035061;28;20060;-84
2022/07/08 06:24:57;;;;;;;2.33;1.20;;;;;;;;;;5017126;28;20095;-80
2022/07/08 06:27:22;;;;;;;2.45;1.17;;;;;;;;;;5034356;28;20507;-81
2022/07/08 06:29:48;;;;;;;1.80;1.10;;;;;;;;;;5049724;28;21037;-81
2022/07/08 06:32:14;;;;;;;6.90;1.23;;;;;;;;;;5053787;28;20064;-81
2022/07/08 06:34:40;;;;;;;4.50;1.30;;;;;;;;;;5051701;28;20017;-80
2022/07/08 06:37:05;;;;;;;2.92;1.15;;;;;;;;;;5053400;28;20095;-82
2022/07/08 06:39:31;;;;;;;2.78;1.13;;;;;;;;;;5051214;28;20029;-81
2022/07/08 06:41:56;;;;;;;1.45;1.00;;;;;;;;;;5052008;28;20041;-80
2022/07/08 06:44:23;;;;;;;2.90;1.40;;;;;;;;;;5047975;28;20029;-81
2022/07/08 06:46:49;;;;;;;3.17;1.20;;;;;;;;;;5043108;28;20037;-82
2022/07/08 06:49:14;;;;;;;3.08;1.10;;;;;;;;;;5051956;28;20029;-82
2022/07/08 06:51:40;;;;;;;3.30;1.10;;;;;;;;;;5052785;28;20040;-81
2022/07/08 06:56:49;;;;;;;2.60;1.00;;;;;;;;;;5052402;28;20029;-82
2022/07/08 06:59:15;;;;;;;2.25;1.00;;;;;;;;;;5053556;28;20036;-86
2022/07/08 07:01:42;;;;;;;3.17;1.10;;;;;;;;;;5052983;28;20439;-82
2022/07/08 07:04:09;;;;;;;6.22;1.10;;;;;;;;;;5053191;28;20013;-82
2022/07/08 07:06:35;;;;;;;2.03;1.13;;;;;;;;;;5053798;28;20112;-84
2022/07/08 07:09:00;;;;;;;3.83;1.13;;;;;;;;;;5052831;28;20180;-82
2022/07/08 07:11:26;;;;;;;2.72;1.05;;;;;;;;;;5042547;28;20033;-83
2022/07/08 07:13:51;;;;;;;2.60;1.10;;;;;;;;;;5034888;28;20021;-80
2022/07/08 07:16:16;;;;;;;2.80;1.33;;;;;;;;;;5033138;28;20139;-83
2022/07/08 07:18:42;;;;;;;1.85;0.90;;;;;;;;;;5037363;28;20020;-81
2022/07/08 07:21:07;;;;;;;5.68;1.17;;;;;;;;;;5054077;28;20122;-83
2022/07/08 07:23:33;;;;;;;3.13;1.02;;;;;;;;;;5054207;28;20444;-81
2022/07/08 07:25:59;;;;;;;2.70;1.20;;;;;;;;;;5041797;28;20074;-82
2022/07/08 07:28:24;;;;;;;1.95;0.85;;;;;;;;;;5035111;28;20033;-82
2022/07/08 07:30:50;;;;;;;2.13;1.08;;;;;;;;;;5033738;28;20120;-84
2022/07/08 07:33:15;;;;;;;4.05;2.67;;;;;;;;;;5032794;28;20564;-82
2022/07/08 07:35:41;;;;;;;2.20;1.23;;;;;;;;;;5034415;28;20036;-81
2022/07/08 07:38:06;;;;;;;2.50;1.13;;;;;;;;;;5034516;28;20031;-82
2022/07/08 07:40:31;;;;;;;3.10;1.20;;;;;;;;;;5034284;28;20061;-83
2022/07/08 07:42:57;;;;;;;2.53;1.20;;;;;;;;;;5033103;28;20029;-85
2022/07/08 07:45:22;;;;;;;1.85;1.00;;;;;;;;;;5013299;28;20080;-81
2022/07/08 07:47:48;;;;;;;1.88;0.90;;;;;;;;;;5012992;28;20036;-82
2022/07/08 07:50:13;;;;;;;3.35;1.00;;;;;;;;;;5025025;28;20197;-81
2022/07/08 07:52:39;;;;;;;3.00;1.20;;;;;;;;;;5032379;28;20487;-81
2022/07/08 07:55:08;;;;;;;4.38;2.00;;;;;;;;;;5034748;28;20056;-81
2022/07/08 07:57:34;;;;;;;1.65;1.08;;;;;;;;;;5034229;28;20018;-82
2022/07/08 08:00:00;;;;;;;3.58;1.05;;;;;;;;;;5034544;28;20033;-81
2022/07/08 08:02:25;;;;;;;1.25;0.75;;;;;;;;;;5015331;28;20033;-85
2022/07/08 08:04:51;;;;;;;3.42;0.80;;;;;;;;;;5017219;28;20060;-81
2022/07/08 08:07:16;;;;;;;2.58;0.90;;;;;;;;;;5035037;28;20094;-82
2022/07/08 08:09:42;;;;;;;3.00;0.80;;;;;;;;;;5012720;28;20513;-83
2022/07/08 08:12:07;;;;;;;3.20;0.90;;;;;;;;;;5032705;28;20053;-82
2022/07/08 08:14:33;;;;;;;1.90;1.02;;;;;;;;;;5034033;28;20041;-83
2022/07/08 08:16:58;;;;;;;1.88;0.77;;;;;;;;;;5012990;28;20030;-81
2022/07/08 08:19:24;;;;;;;1.08;0.70;;;;;;;;;;5024773;28;20567;-81
2022/07/08 08:21:50;;;;;;;2.65;0.90;;;;;;;;;;5034337;28;20125;-82
2022/07/08 08:24:15;;;;;;;5.15;0.90;;;;;;;;;;5033699;28;20056;-82
2022/07/08 08:26:43;;;;;;;0.88;0.75;;;;;;;;;;5036884;28;20040;-82
2022/07/08 08:29:08;;;;;;;4.00;1.88;;;;;;;;;;5051264;28;20036;-84
2022/07/08 08:31:34;;;;;;;1.83;1.17;;;;;;;;;;5030566;28;20048;-81
2022/07/08 08:34:00;;;;;;;1.60;0.88;;;;;;;;;;5025234;28;20040;-81
2022/07/08 08:36:26;;;;;;;3.67;0.82;;;;;;;;;;5052260;28;20119;-80
2022/07/08 08:38:52;;;;;;;2.28;0.80;;;;;;;;;;5052210;28;20032;-81
2022/07/08 08:41:17;;;;;;;2.08;0.90;;;;;;;;;;5051376;28;20021;-82
2022/07/08 08:43:43;;;;;;;4.65;0.93;;;;;;;;;;5050207;28;20488;-82
2022/07/08 08:46:09;;;;;;;3.75;1.00;;;;;;;;;;5050962;28;20159;-82
2022/07/08 08:48:36;;;;;;;3.05;1.20;;;;;;;;;;5034483;28;20036;-82
2022/07/08 08:51:03;;;;;;;3.03;1.17;;;;;;;;;;5050749;28;20151;-83
2022/07/08 08:53:40;;;;;;;3.28;1.30;;;;;;;;;;5050361;28;20037;-82
2022/07/08 08:56:10;;;;;;;3.60;0.90;;;;;;;;;;5049426;28;20035;-81
2022/07/08 08:58:39;;;;;;;3.72;1.02;;;;;;;;;;5051176;28;20044;-81
2022/07/08 09:01:08;;;;;;;2.00;0.90;;;;;;;;;;5049933;28;20067;-82
2022/07/08 09:03:36;;;;;;;4.05;1.00;;;;;;;;;;5050609;28;20116;-82
2022/07/08 09:06:02;;;;;;;2.42;0.82;;;;;;;;;;5051847;28;20547;-82
2022/07/08 09:08:28;;;;;;;1.75;1.00;;;;;;;;;;5048809;28;20060;-82
2022/07/08 09:10:53;;;;;;;2.42;1.15;;;;;;;;;;5051597;28;20508;-81
2022/07/08 09:13:21;;;;;;;2.90;0.70;;;;;;;;;;5032732;28;20037;-82
2022/07/08 09:15:47;;;;;;;1.50;0.75;;;;;;;;;;5050512;28;20083;-81
2022/07/08 09:18:15;;;;;;;2.92;0.80;;;;;;;;;;5032575;28;20032;-81
2022/07/08 09:20:41;;;;;;;2.53;1.10;;;;;;;;;;5051516;28;20021;-82
2022/07/08 09:23:16;;;;;;;3.03;1.10;;;;;;;;;;5049601;28;20037;-82
2022/07/08 09:25:44;;;;;;;2.13;0.90;;;;;;;;;;5042725;28;20060;-81
2022/07/08 09:28:09;;;;;;;1.77;0.70;;;;;;;;;;5030801;28;20107;-81
2022/07/08 09:30:35;;;;;;;1.70;1.02;;;;;;;;;;5032184;28;20496;-83
2022/07/08 09:33:01;;;;;;;1.88;0.70;;;;;;;;;;5032865;28;20017;-82
2022/07/08 09:35:30;;;;;;;1.42;0.70;;;;;;;;;;5031606;28;20037;-83
2022/07/08 09:37:56;;;;;;;1.25;0.70;;;;;;;;;;5033849;28;20033;-82
2022/07/08 09:40:22;;;;;;;1.35;0.60;;;;;;;;;;5031904;28;20037;-84
2022/07/08 09:42:48;;;;;;;2.60;1.60;;;;;;;;;;5016351;28;20506;-81
2022/07/08 09:45:13;;;;;;;1.80;0.98;;;;;;;;;;5033161;28;20048;-82
2022/07/08 09:47:39;;;;;;;2.72;1.10;;;;;;;;;;5032460;28;20079;-83
2022/07/08 09:50:04;;;;;;;2.13;0.70;;;;;;;;;;5031531;28;20038;-85
2022/07/08 09:52:30;;;;;;;1.70;0.70;;;;;;;;;;5032091;28;20041;-83
2022/07/08 09:55:02;;;;;;;2.10;0.80;;;;;;;;;;5033006;28;20038;-82
2022/07/08 09:57:29;;;;;;;1.75;0.80;;;;;;;;;;5033184;28;20049;-82
2022/07/08 09:59:54;;;;;;;2.72;0.90;;;;;;;;;;5031600;28;20481;-83
2022/07/08 10:02:20;;;;;;;1.17;0.73;;;;;;;;;;5034220;28;20033;-82
2022/07/08 10:04:46;;;;;;;0.60;0.57;;;;;;;;;;5050439;28;20373;-84
2022/07/08 10:07:11;;;;;;;2.92;0.70;;;;;;;;;;5033317;28;20033;-83
2022/07/08 10:09:37;;;;;;;1.80;0.80;;;;;;;;;;5049315;28;20049;-82
2022/07/08 10:12:02;;;;;;;1.95;0.70;;;;;;;;;;5050949;28;20408;-83
2022/07/08 10:14:28;;;;;;;1.40;0.70;;;;;;;;;;5032316;28;20033;-84
2022/07/08 10:16:54;;;;;;;1.35;0.90;;;;;;;;;;5050288;28;20033;-83
2022/07/08 10:19:20;;;;;;;2.00;0.70;;;;;;;;;;5047902;28;20025;-82
2022/07/08 10:21:46;;;;;;;1.30;0.50;;;;;;;;;;5039345;28;20040;-81
2022/07/08 10:24:13;;;;;;;1.63;0.60;;;;;;;;;;5016499;28;20033;-82
2022/07/08 10:26:40;;;;;;;0.93;0.70;;;;;;;;;;5038194;28;20036;-82
2022/07/08 10:29:06;;;;;;;2.38;0.70;;;;;;;;;;5034124;28;20041;-83
2022/07/08 10:31:44;;;;;;;1.50;0.60;;;;;;;;;;5049202;28;20035;-83
2022/07/08 10:34:10;;;;;;;4.45;0.80;;;;;;;;;;5033186;28;20041;-82
2022/07/08 10:37:05;;;;;;;1.15;0.60;;;;;;;;;;5035043;28;20111;-82
2022/07/08 10:39:31;;;;;;;2.95;0.90;;;;;;;;;;5029504;28;20090;-83
2022/07/08 10:41:59;;;;;;;1.92;0.88;;;;;;;;;;5034992;28;20017;-83
2022/07/08 10:44:43;;;;;;;1.33;0.80;;;;;;;;;;5033934;28;20124;-84
2022/07/08 10:47:15;;;;;;;3.20;0.80;;;;;;;;;;5035351;28;20029;-84
2022/07/08 10:49:41;;;;;;;2.40;0.80;;;;;;;;;;5032983;28;20046;-82
2022/07/08 10:52:07;;;;;;;1.45;0.65;;;;;;;;;;5033517;28;20163;-82
2022/07/08 10:54:36;;;;;;;1.33;0.70;;;;;;;;;;5033524;28;20124;-82
2022/07/08 10:57:02;;;;;;;1.00;0.60;;;;;;;;;;5035242;28;20021;-82
2022/07/08 10:59:28;;;;;;;2.05;0.75;;;;;;;;;;5034537;28;20029;-82
2022/07/08 11:01:54;;;;;;;1.45;0.70;;;;;;;;;;5034880;28;20029;-81
2022/07/08 11:04:20;;;;;;;2.53;0.90;;;;;;;;;;5034425;28;20029;-80
2022/07/08 11:06:45;;;;;;;1.98;0.70;;;;;;;;;;5034470;28;20080;-81
2022/07/08 11:09:11;;;;;;;1.27;0.70;;;;;;;;;;5032746;28;20408;-82
2022/07/08 11:11:39;;;;;;;2.08;0.93;;;;;;;;;;5033142;28;20128;-82
2022/07/08 11:14:05;;;;;;;2.00;0.65;;;;;;;;;;5033242;28;20072;-85
2022/07/08 11:16:31;;;;;;;1.23;0.65;;;;;;;;;;5017998;28;20060;-83
2022/07/08 11:18:56;;;;;;;1.73;0.68;;;;;;;;;;5034660;28;20536;-83
2022/07/08 11:21:22;;;;;;;1.55;0.82;;;;;;;;;;5035480;28;20024;-82
2022/07/08 11:23:47;;;;;;;3.60;0.90;;;;;;;;;;5034182;28;20034;-81
2022/07/08 11:26:17;;;;;;;0.93;0.60;;;;;;;;;;5032379;28;20396;-82
2022/07/08 11:28:42;;;;;;;1.60;0.70;;;;;;;;;;5032408;28;20052;-82
2022/07/08 11:31:37;;;;;;;2.28;0.70;;;;;;;;;;5046987;28;20518;-81
2022/07/08 11:34:03;;;;;;;1.65;0.80;;;;;;;;;;5034210;28;20065;-82
2022/07/08 11:36:28;;;;;;;2.55;0.90;;;;;;;;;;5050887;28;20519;-82
2022/07/08 11:38:54;;;;;;;1.60;0.68;;;;;;;;;;5053407;28;20031;-83
2022/07/08 11:41:20;;;;;;;1.98;0.73;;;;;;;;;;5052603;28;20047;-80
2022/07/08 11:43:47;;;;;;;5.68;0.80;;;;;;;;;;5053665;28;20083;-85
2022/07/08 11:46:16;;;;;;;1.52;0.80;;;;;;;;;;5001779;28;20026;-80
2022/07/08 11:48:41;;;;;;;1.92;0.70;;;;;;;;;;5012821;28;20068;-82
2022/07/08 11:51:07;;;;;;;1.15;0.60;;;;;;;;;;5030883;28;20045;-82
2022/07/08 11:53:32;;;;;;;3.15;0.73;;;;;;;;;;5032494;28;20068;-82
2022/07/08 11:55:57;;;;;;;1.60;0.70;;;;;;;;;;5050285;28;20032;-82
2022/07/08 11:58:23;;;;;;;1.52;0.68;;;;;;;;;;5053023;28;20043;-82
2022/07/08 12:00:49;;;;;;;1.73;0.90;;;;;;;;;;5050440;28;20028;-84
2022/07/08 12:03:14;;;;;;;1.23;0.60;;;;;;;;;;5051294;28;20040;-85
2022/07/08 12:05:40;;;;;;;1.35;0.82;;;;;;;;;;5050346;28;20036;-82
2022/07/08 12:08:09;;;;;;;2.95;1.10;;;;;;;;;;5034435;28;20415;-82
2022/07/08 12:10:35;;;;;;;1.70;0.73;;;;;;;;;;5052218;28;20043;-82
2022/07/08 12:13:01;;;;;;;3.85;0.70;;;;;;;;;;5052055;28;20024;-83
2022/07/08 12:15:32;;;;;;;2.65;0.90;;;;;;;;;;5034288;28;20013;-83
2022/07/08 12:17:58;;;;;;;1.88;0.70;;;;;;;;;;5045314;28;20119;-83
2022/07/08 12:20:49;;;;;;;1.60;0.77;;;;;;;;;;5046530;28;20544;-82
2022/07/08 12:23:15;;;;;;;2.35;0.73;;;;;;;;;;5035220;28;20045;-84
2022/07/08 12:25:47;;;;;;;1.83;0.80;;;;;;;;;;5043765;28;20919;-81
2022/07/08 12:28:12;;;;;;;1.20;0.70;;;;;;;;;;5031309;28;20518;-82
2022/07/08 12:30:38;;;;;;;1.73;0.80;;;;;;;;;;5023867;28;20108;-82
2022/07/08 12:33:04;;;;;;;4.25;0.70;;;;;;;;;;5037630;28;20756;-83
2022/07/08 12:35:31;;;;;;;1.15;0.90;;;;;;;;;;5035106;28;20028;-82
2022/07/08 12:38:03;;;;;;;2.90;0.60;;;;;;;;;;5051441;28;20025;-82
2022/07/08 12:40:35;;;;;;;1.55;0.70;;;;;;;;;;5050445;28;20037;-82
2022/07/08 12:43:03;;;;;;;2.28;0.80;;;;;;;;;;5049696;28;20063;-83
2022/07/08 12:45:29;;;;;;;2.65;0.60;;;;;;;;;;5051572;28;20078;-81
2022/07/08 12:47:55;;;;;;;1.33;0.60;;;;;;;;;;5048481;28;20041;-81
2022/07/08 12:50:20;;;;;;;2.28;0.70;;;;;;;;;;5050977;28;20060;-81
2022/07/08 12:52:46;;;;;;;1.70;0.90;;;;;;;;;;5049464;28;20059;-83
2022/07/08 12:55:11;;;;;;;2.22;0.80;;;;;;;;;;5050176;28;20103;-83
2022/07/08 12:57:37;;;;;;;1.40;0.88;;;;;;;;;;5050057;28;20056;-81
2022/07/08 13:00:03;;;;;;;4.53;1.00;;;;;;;;;;5050936;28;20407;-82
2022/07/08 13:02:28;;;;;;;1.63;0.80;;;;;;;;;;5049807;28;20479;-84
2022/07/08 13:04:54;;;;;;;1.58;0.70;;;;;;;;;;5050835;28;20021;-82
2022/07/08 13:07:19;;;;;;;2.58;0.82;;;;;;;;;;5049789;28;20036;-83
2022/07/08 13:09:45;;;;;;;3.55;0.90;;;;;;;;;;5049788;28;20574;-82
2022/07/08 13:12:11;;;;;;;2.67;0.85;;;;;;;;;;5050533;28;20147;-82
2022/07/08 13:14:37;;;;;;;2.45;0.88;;;;;;;;;;5051451;28;20622;-81
2022/07/08 13:17:02;;;;;;;1.95;0.80;;;;;;;;;;5050157;28;20506;-83
2022/07/08 13:19:28;;;;;;;2.15;1.10;;;;;;;;;;5032839;28;20025;-81
2022/07/08 13:21:53;;;;;;;2.38;0.85;;;;;;;;;;5049130;28;20033;-85
2022/07/08 13:24:19;;;;;;;2.28;1.08;;;;;;;;;;5050291;28;20056;-82
2022/07/08 13:26:45;;;;;;;3.53;1.00;;;;;;;;;;5031757;28;20095;-81
2022/07/08 13:29:10;;;;;;;1.88;1.10;;;;;;;;;;5010601;28;20046;-82
2022/07/08 13:31:36;;;;;;;2.90;1.00;;;;;;;;;;5028920;28;20143;-81
2022/07/08 13:34:01;;;;;;;1.70;1.08;;;;;;;;;;5032172;28;20104;-83
2022/07/08 13:36:28;;;;;;;1.60;1.00;;;;;;;;;;5030666;28;20432;-82
2022/07/08 13:38:54;;;;;;;2.40;1.10;;;;;;;;;;5031569;28;20442;-82
2022/07/08 13:41:20;;;;;;;4.10;1.48;;;;;;;;;;5010752;28;20037;-80
2022/07/08 13:43:45;;;;;;;3.28;1.25;;;;;;;;;;5021011;28;20064;-82
2022/07/08 13:46:13;;;;;;;4.53;1.60;;;;;;;;;;5031716;28;20507;-81
2022/07/08 13:48:39;;;;;;;2.42;1.35;;;;;;;;;;5031986;28;20438;-83
2022/07/08 13:51:04;;;;;;;1.70;1.25;;;;;;;;;;5032042;28;20498;-81
2022/07/08 13:53:30;;;;;;;4.18;1.20;;;;;;;;;;5031049;28;20053;-83
2022/07/08 13:55:56;;;;;;;1.13;0.77;;;;;;;;;;5010884;28;20129;-82
2022/07/08 13:58:21;;;;;;;2.33;1.00;;;;;;;;;;5023908;28;20076;-84
2022/07/08 14:00:47;;;;;;;3.55;1.30;;;;;;;;;;5011806;28;20038;-83
2022/07/08 14:03:12;;;;;;;1.98;0.93;;;;;;;;;;4991089;28;20519;-82
2022/07/08 14:05:38;;;;;;;2.53;1.20;;;;;;;;;;5034699;28;20543;-80
2022/07/08 14:08:03;;;;;;;1.38;0.90;;;;;;;;;;5034643;28;20052;-82
2022/07/08 14:10:29;;;;;;;4.80;1.48;;;;;;;;;;5035148;28;20045;-81
2022/07/08 14:12:54;;;;;;;2.38;1.27;;;;;;;;;;5036345;28;20029;-82
2022/07/08 14:15:21;;;;;;;3.45;1.30;;;;;;;;;;5034911;28;20116;-83
2022/07/08 14:17:46;;;;;;;1.40;0.80;;;;;;;;;;5036431;28;20576;-81
2022/07/08 14:20:12;;;;;;;3.00;1.02;;;;;;;;;;5035610;28;20033;-82
2022/07/08 14:22:37;;;;;;;2.60;0.90;;;;;;;;;;5035569;28;20034;-85
2022/07/08 14:25:04;;;;;;;2.53;1.50;;;;;;;;;;5015339;28;20554;-82
2022/07/08 14:27:29;;;;;;;3.25;1.30;;;;;;;;;;5036195;28;20134;-82
2022/07/08 14:29:55;;;;;;;1.92;0.98;;;;;;;;;;5036053;28;20178;-81
2022/07/08 14:32:20;;;;;;;2.90;1.35;;;;;;;;;;5044125;28;20075;-81
2022/07/08 14:34:46;;;;;;;2.03;1.15;;;;;;;;;;5053803;28;20509;-81
2022/07/08 14:37:12;;;;;;;2.03;0.93;;;;;;;;;;5045109;28;20032;-82
2022/07/08 14:39:38;;;;;;;2.08;1.00;;;;;;;;;;5049950;28;20029;-82